sensor_id;sensor_type;location;lat;lon;timestamp;pressure;altitude;pressure_sealevel;temperature;humidity
35704;BME280;21820;51.112;13.762;2022-12-04T00:01:59;99654.44;;;21.06;60.47
35704;BME280;21820;51.112;13.762;2022-12-04T00:04:24;99655.28;;;21.07;60.97
35704;BME280;21820;51.112;13.762;2022-12-04T00:06:50;99658.97;;;21.04;60.55
35704;BME280;21820;51.112;13.762;2022-12-04T00:09:15;99658.16;;;21.04;61.00
35704;BME280;21820;51.112;13.762;2022-12-04T00:11:40;99666.00;;;21.04;60.85
35704;BME280;21820;51.112;13.762;2022-12-04T00:14:06;99658.28;;;21.02;60.93
35704;BME280;21820;51.112;13.762;2022-12-04T00:16:31;99661.03;;;21.01;60.62
35704;BME280;21820;51.112;13.762;2022-12-04T00:18:57;99660.22;;;21.00;61.10
35704;BME280;21820;51.112;13.762;2022-12-04T00:21:23;99654.94;;;20.91;60.74
35704;BME280;21820;51.112;13.762;2022-12-04T00:23:49;99662.97;;;20.99;60.62
35704;BME280;21820;51.112;13.762;2022-12-04T00:26:18;99657.72;;;20.99;60.39
35704;BME280;21820;51.112;13.762;2022-12-04T00:28:44;99640.47;;;20.87;60.51
35704;BME280;21820;51.112;13.762;2022-12-04T00:31:12;99666.38;;;20.99;60.38
35704;BME280;21820;51.112;13.762;2022-12-04T00:33:38;99656.34;;;21.04;60.73
35704;BME280;21820;51.112;13.762;2022-12-04T00:36:07;99652.53;;;21.08;60.46
35704;BME280;21820;51.112;13.762;2022-12-04T00:38:33;99657.75;;;21.18;60.24
35704;BME280;21820;51.112;13.762;2022-12-04T00:40:59;99655.16;;;21.27;60.16
35704;BME280;21820;51.112;13.762;2022-12-04T00:43:28;99651.16;;;21.42;59.86
35704;BME280;21820;51.112;13.762;2022-12-04T00:45:54;99653.69;;;21.53;59.64
35704;BME280;21820;51.112;13.762;2022-12-04T00:48:19;99649.38;;;21.62;59.50
35704;BME280;21820;51.112;13.762;2022-12-04T00:50:45;99650.47;;;21.69;58.44
35704;BME280;21820;51.112;13.762;2022-12-04T00:53:11;99655.56;;;21.70;58.95
35704;BME280;21820;51.112;13.762;2022-12-04T00:55:38;99658.19;;;21.70;59.12
35704;BME280;21820;51.112;13.762;2022-12-04T00:58:03;99643.72;;;21.57;59.23
35704;BME280;21820;51.112;13.762;2022-12-04T01:00:29;99645.81;;;21.63;59.31
35704;BME280;21820;51.112;13.762;2022-12-04T01:02:55;99647.88;;;21.59;58.82
35704;BME280;21820;51.112;13.762;2022-12-04T01:05:20;99648.84;;;21.58;58.85
35704;BME280;21820;51.112;13.762;2022-12-04T01:07:46;99651.72;;;21.55;59.60
35704;BME280;21820;51.112;13.762;2022-12-04T01:10:12;99649.25;;;21.54;59.30
35704;BME280;21820;51.112;13.762;2022-12-04T01:12:37;99642.78;;;21.48;59.17
35704;BME280;21820;51.112;13.762;2022-12-04T01:15:03;99644.16;;;21.43;59.78
35704;BME280;21820;51.112;13.762;2022-12-04T01:17:28;99641.00;;;21.39;59.50
35704;BME280;21820;51.112;13.762;2022-12-04T01:19:54;99635.19;;;21.36;60.20
35704;BME280;21820;51.112;13.762;2022-12-04T01:22:19;99630.53;;;21.30;59.94
35704;BME280;21820;51.112;13.762;2022-12-04T01:24:44;99627.34;;;21.17;59.82
35704;BME280;21820;51.112;13.762;2022-12-04T01:27:10;99633.56;;;21.25;59.77
35704;BME280;21820;51.112;13.762;2022-12-04T01:29:35;99618.25;;;21.11;60.06
35704;BME280;21820;51.112;13.762;2022-12-04T01:32:01;99632.16;;;21.21;60.42
35704;BME280;21820;51.112;13.762;2022-12-04T01:34:26;99640.28;;;21.18;60.35
35704;BME280;21820;51.112;13.762;2022-12-04T01:36:51;99634.38;;;21.16;60.46
35704;BME280;21820;51.112;13.762;2022-12-04T01:39:17;99622.28;;;21.15;60.20
35704;BME280;21820;51.112;13.762;2022-12-04T01:41:43;99631.06;;;21.14;60.33
35704;BME280;21820;51.112;13.762;2022-12-04T01:44:17;99627.75;;;21.12;60.64
35704;BME280;21820;51.112;13.762;2022-12-04T01:46:45;99625.03;;;21.14;60.97
35704;BME280;21820;51.112;13.762;2022-12-04T01:49:18;99620.88;;;21.11;60.90
35704;BME280;21820;51.112;13.762;2022-12-04T01:51:49;99612.06;;;21.12;60.35
35704;BME280;21820;51.112;13.762;2022-12-04T01:54:20;99602.16;;;21.16;60.77
35704;BME280;21820;51.112;13.762;2022-12-04T01:56:51;99593.38;;;21.26;60.02
35704;BME280;21820;51.112;13.762;2022-12-04T01:59:21;99600.78;;;21.31;60.23
35704;BME280;21820;51.112;13.762;2022-12-04T02:02:03;99602.16;;;21.44;59.41
35704;BME280;21820;51.112;13.762;2022-12-04T02:04:30;99589.22;;;21.52;59.22
35704;BME280;21820;51.112;13.762;2022-12-04T02:06:56;99584.81;;;21.62;59.10
35704;BME280;21820;51.112;13.762;2022-12-04T02:09:21;99574.06;;;21.65;58.50
35704;BME280;21820;51.112;13.762;2022-12-04T02:15:07;99584.22;;;21.68;59.14
35704;BME280;21820;51.112;13.762;2022-12-04T02:17:38;99579.28;;;21.65;58.70
35704;BME280;21820;51.112;13.762;2022-12-04T02:20:27;99570.38;;;21.58;58.81
35704;BME280;21820;51.112;13.762;2022-12-04T02:31:11;99575.72;;;21.47;59.56
35704;BME280;21820;51.112;13.762;2022-12-04T02:33:45;99571.91;;;21.42;59.73
35704;BME280;21820;51.112;13.762;2022-12-04T02:36:18;99575.47;;;21.41;59.87
35704;BME280;21820;51.112;13.762;2022-12-04T02:38:58;99573.84;;;21.30;59.78
35704;BME280;21820;51.112;13.762;2022-12-04T02:41:37;99576.56;;;21.29;59.57
35704;BME280;21820;51.112;13.762;2022-12-04T02:44:09;99575.06;;;21.26;60.55
35704;BME280;21820;51.112;13.762;2022-12-04T02:46:38;99570.13;;;21.23;59.97
35704;BME280;21820;51.112;13.762;2022-12-04T02:49:09;99565.31;;;21.19;60.48
35704;BME280;21820;51.112;13.762;2022-12-04T02:51:37;99572.31;;;21.18;60.31
35704;BME280;21820;51.112;13.762;2022-12-04T02:54:10;99572.59;;;21.15;60.19
35704;BME280;21820;51.112;13.762;2022-12-04T02:56:41;99581.25;;;21.16;60.28
35704;BME280;21820;51.112;13.762;2022-12-04T02:59:15;99571.63;;;21.16;60.19
35704;BME280;21820;51.112;13.762;2022-12-04T03:01:45;99566.41;;;21.16;60.10
35704;BME280;21820;51.112;13.762;2022-12-04T03:04:16;99568.31;;;21.24;60.21
35704;BME280;21820;51.112;13.762;2022-12-04T03:06:47;99569.28;;;21.32;60.36
35704;BME280;21820;51.112;13.762;2022-12-04T03:09:19;99566.13;;;21.38;60.20
35704;BME280;21820;51.112;13.762;2022-12-04T03:11:51;99555.94;;;21.45;59.72
35704;BME280;21820;51.112;13.762;2022-12-04T03:14:25;99562.53;;;21.58;58.90
35704;BME280;21820;51.112;13.762;2022-12-04T03:16:56;99566.59;;;21.70;59.17
35704;BME280;21820;51.112;13.762;2022-12-04T03:19:36;99552.97;;;21.67;59.36
35704;BME280;21820;51.112;13.762;2022-12-04T03:22:09;99555.34;;;21.70;58.74
35704;BME280;21820;51.112;13.762;2022-12-04T03:24:43;99560.56;;;21.70;58.62
35704;BME280;21820;51.112;13.762;2022-12-04T03:27:11;99564.97;;;21.69;58.61
35704;BME280;21820;51.112;13.762;2022-12-04T03:30:17;99553.41;;;21.62;58.99
35704;BME280;21820;51.112;13.762;2022-12-04T03:38:05;99558.25;;;21.57;59.50
35704;BME280;21820;51.112;13.762;2022-12-04T03:40:37;99555.09;;;21.63;59.17
35704;BME280;21820;51.112;13.762;2022-12-04T03:43:26;99556.69;;;21.74;58.83
35704;BME280;21820;51.112;13.762;2022-12-04T03:46:12;99561.53;;;21.88;58.28
35704;BME280;21820;51.112;13.762;2022-12-04T03:48:44;99561.50;;;21.98;58.63
35704;BME280;21820;51.112;13.762;2022-12-04T03:51:35;99562.56;;;22.05;57.93
35704;BME280;21820;51.112;13.762;2022-12-04T03:54:08;99568.22;;;22.10;58.05
35704;BME280;21820;51.112;13.762;2022-12-04T03:56:43;99572.31;;;22.12;57.36
35704;BME280;21820;51.112;13.762;2022-12-04T03:59:15;99579.44;;;22.20;57.25
35704;BME280;21820;51.112;13.762;2022-12-04T04:01:45;99575.03;;;22.20;57.37
35704;BME280;21820;51.112;13.762;2022-12-04T04:04:17;99574.19;;;22.20;57.63
35704;BME280;21820;51.112;13.762;2022-12-04T04:06:51;99569.41;;;22.15;57.99
35704;BME280;21820;51.112;13.762;2022-12-04T04:09:23;99569.16;;;22.09;57.56
35704;BME280;21820;51.112;13.762;2022-12-04T04:14:54;99579.53;;;22.01;57.80
35704;BME280;21820;51.112;13.762;2022-12-04T04:17:42;99574.19;;;21.92;57.92
35704;BME280;21820;51.112;13.762;2022-12-04T04:20:29;99579.69;;;21.89;58.68
35704;BME280;21820;51.112;13.762;2022-12-04T04:23:16;99575.16;;;21.82;58.53
35704;BME280;21820;51.112;13.762;2022-12-04T04:26:02;99562.66;;;21.66;59.12
35704;BME280;21820;51.112;13.762;2022-12-04T04:31:09;99571.44;;;21.65;59.28
35704;BME280;21820;51.112;13.762;2022-12-04T04:34:28;99570.47;;;21.57;58.90
35704;BME280;21820;51.112;13.762;2022-12-04T04:36:48;99568.59;;;21.49;59.88
35704;BME280;21820;51.112;13.762;2022-12-04T04:44:39;99554.16;;;21.26;59.82
35704;BME280;21820;51.112;13.762;2022-12-04T04:47:10;99563.25;;;21.32;60.12
35704;BME280;21820;51.112;13.762;2022-12-04T04:49:38;99562.53;;;21.30;59.86
35704;BME280;21820;51.112;13.762;2022-12-04T04:52:04;99560.06;;;21.28;60.61
35704;BME280;21820;51.112;13.762;2022-12-04T04:54:32;99567.50;;;21.23;60.69
35704;BME280;21820;51.112;13.762;2022-12-04T04:56:59;99572.03;;;21.21;59.99
35704;BME280;21820;51.112;13.762;2022-12-04T04:59:24;99562.56;;;21.20;60.42
35704;BME280;21820;51.112;13.762;2022-12-04T05:01:50;99568.03;;;21.17;60.58
35704;BME280;21820;51.112;13.762;2022-12-04T05:04:18;99548.09;;;21.16;60.11
35704;BME280;21820;51.112;13.762;2022-12-04T05:06:43;99566.41;;;21.16;60.61
35704;BME280;21820;51.112;13.762;2022-12-04T05:09:09;99562.13;;;21.15;60.78
35704;BME280;21820;51.112;13.762;2022-12-04T05:11:34;99563.09;;;21.14;60.96
35704;BME280;21820;51.112;13.762;2022-12-04T05:14:00;99564.75;;;21.15;60.39
35704;BME280;21820;51.112;13.762;2022-12-04T05:16:25;99559.78;;;21.12;60.39
35704;BME280;21820;51.112;13.762;2022-12-04T05:18:50;99558.69;;;21.15;60.44
35704;BME280;21820;51.112;13.762;2022-12-04T05:21:34;99564.19;;;21.12;60.44
35704;BME280;21820;51.112;13.762;2022-12-04T05:24:00;99558.13;;;21.11;60.44
35704;BME280;21820;51.112;13.762;2022-12-04T05:26:25;99558.97;;;21.12;61.03
35704;BME280;21820;51.112;13.762;2022-12-04T05:28:50;99562.28;;;21.14;61.02
35704;BME280;21820;51.112;13.762;2022-12-04T05:31:16;99551.94;;;21.12;60.50
35704;BME280;21820;51.112;13.762;2022-12-04T05:33:41;99552.63;;;21.14;60.19
35704;BME280;21820;51.112;13.762;2022-12-04T05:36:08;99557.84;;;21.14;60.16
35704;BME280;21820;51.112;13.762;2022-12-04T05:38:35;99554.97;;;21.17;60.11
35704;BME280;21820;51.112;13.762;2022-12-04T05:41:03;99560.88;;;21.19;60.20
35704;BME280;21820;51.112;13.762;2022-12-04T05:43:29;99549.47;;;21.20;60.69
35704;BME280;21820;51.112;13.762;2022-12-04T05:45:54;99545.59;;;21.24;59.91
35704;BME280;21820;51.112;13.762;2022-12-04T05:48:24;99547.94;;;21.27;60.24
35704;BME280;21820;51.112;13.762;2022-12-04T05:50:49;99539.97;;;21.29;59.97
35704;BME280;21820;51.112;13.762;2022-12-04T05:53:14;99546.72;;;21.31;59.89
35704;BME280;21820;51.112;13.762;2022-12-04T05:55:40;99538.59;;;21.34;59.86
35704;BME280;21820;51.112;13.762;2022-12-04T05:58:05;99543.25;;;21.40;59.67
35704;BME280;21820;51.112;13.762;2022-12-04T06:00:30;99545.59;;;21.43;60.01
35704;BME280;21820;51.112;13.762;2022-12-04T06:02:56;99538.41;;;21.45;59.29
35704;BME280;21820;51.112;13.762;2022-12-04T06:05:21;99533.88;;;21.47;59.57
35704;BME280;21820;51.112;13.762;2022-12-04T06:07:47;99523.13;;;21.50;59.37
35704;BME280;21820;51.112;13.762;2022-12-04T06:10:12;99523.53;;;21.55;59.36
35704;BME280;21820;51.112;13.762;2022-12-04T06:12:37;99511.19;;;21.48;59.35
35704;BME280;21820;51.112;13.762;2022-12-04T06:15:03;99532.47;;;21.62;59.49
35704;BME280;21820;51.112;13.762;2022-12-04T06:17:29;99541.31;;;21.61;58.95
35704;BME280;21820;51.112;13.762;2022-12-04T06:19:54;99543.09;;;21.61;59.37
35704;BME280;21820;51.112;13.762;2022-12-04T06:22:20;99538.00;;;21.59;59.37
35704;BME280;21820;51.112;13.762;2022-12-04T06:24:46;99532.78;;;21.59;59.47
35704;BME280;21820;51.112;13.762;2022-12-04T06:27:11;99536.38;;;21.58;58.96
35704;BME280;21820;51.112;13.762;2022-12-04T06:29:36;99514.88;;;21.45;59.30
35704;BME280;21820;51.112;13.762;2022-12-04T06:32:02;99536.63;;;21.55;59.10
35704;BME280;21820;51.112;13.762;2022-12-04T06:34:27;99520.41;;;21.42;59.67
35704;BME280;21820;51.112;13.762;2022-12-04T06:36:53;99536.75;;;21.54;59.81
35704;BME280;21820;51.112;13.762;2022-12-04T06:39:19;99547.66;;;21.49;59.25
35704;BME280;21820;51.112;13.762;2022-12-04T06:41:44;99537.47;;;21.46;59.21
35704;BME280;21820;51.112;13.762;2022-12-04T06:44:12;99541.19;;;21.44;59.46
35704;BME280;21820;51.112;13.762;2022-12-04T06:46:37;99548.22;;;21.43;59.94
35704;BME280;21820;51.112;13.762;2022-12-04T06:49:03;99555.25;;;21.43;59.84
35704;BME280;21820;51.112;13.762;2022-12-04T06:51:31;99554.41;;;21.42;59.36
35704;BME280;21820;51.112;13.762;2022-12-04T06:53:57;99553.72;;;21.40;60.10
35704;BME280;21820;51.112;13.762;2022-12-04T06:56:25;99562.66;;;21.38;59.64
35704;BME280;21820;51.112;13.762;2022-12-04T06:58:53;99557.59;;;21.36;60.04
35704;BME280;21820;51.112;13.762;2022-12-04T07:01:21;99564.44;;;21.37;59.87
35704;BME280;21820;51.112;13.762;2022-12-04T07:03:48;99564.44;;;21.37;59.99
35704;BME280;21820;51.112;13.762;2022-12-04T07:08:41;99563.91;;;21.34;59.67
35704;BME280;21820;51.112;13.762;2022-12-04T07:11:07;99559.50;;;21.34;59.67
35704;BME280;21820;51.112;13.762;2022-12-04T07:13:33;99563.09;;;21.33;60.17
35704;BME280;21820;51.112;13.762;2022-12-04T07:15:59;99546.59;;;21.23;60.03
35704;BME280;21820;51.112;13.762;2022-12-04T07:18:26;99552.09;;;21.30;59.81
35704;BME280;21820;51.112;13.762;2022-12-04T07:20:51;99563.38;;;21.30;60.42
35704;BME280;21820;51.112;13.762;2022-12-04T07:23:16;99559.25;;;21.28;59.83
35704;BME280;21820;51.112;13.762;2022-12-04T07:25:42;99550.69;;;21.26;60.32
35704;BME280;21820;51.112;13.762;2022-12-04T07:28:07;99560.34;;;21.25;59.93
35704;BME280;21820;51.112;13.762;2022-12-04T07:30:32;99557.75;;;21.25;60.21
35704;BME280;21820;51.112;13.762;2022-12-04T07:32:58;99560.34;;;21.25;60.20
35704;BME280;21820;51.112;13.762;2022-12-04T07:35:23;99567.50;;;21.23;60.21
35704;BME280;21820;51.112;13.762;2022-12-04T07:37:48;99563.91;;;21.24;60.29
35704;BME280;21820;51.112;13.762;2022-12-04T07:40:14;99555.09;;;21.16;60.47
35704;BME280;21820;51.112;13.762;2022-12-04T07:42:39;99569.41;;;21.21;60.07
35704;BME280;21820;51.112;13.762;2022-12-04T07:45:05;99552.91;;;21.11;60.52
35704;BME280;21820;51.112;13.762;2022-12-04T07:47:30;99563.34;;;21.21;60.12
35704;BME280;21820;51.112;13.762;2022-12-04T07:49:55;99560.59;;;21.22;60.24
35704;BME280;21820;51.112;13.762;2022-12-04T07:52:21;99557.19;;;21.22;60.63
35704;BME280;21820;51.112;13.762;2022-12-04T07:54:46;99550.16;;;21.22;60.28
35704;BME280;21820;51.112;13.762;2022-12-04T07:57:11;99555.38;;;21.22;59.97
35704;BME280;21820;51.112;13.762;2022-12-04T07:59:37;99547.13;;;21.17;60.70
35704;BME280;21820;51.112;13.762;2022-12-04T08:02:04;99546.88;;;21.20;60.50
35704;BME280;21820;51.112;13.762;2022-12-04T08:04:30;99561.44;;;21.23;60.11
35704;BME280;21820;51.112;13.762;2022-12-04T08:06:55;99557.31;;;21.20;60.18
35704;BME280;21820;51.112;13.762;2022-12-04T08:09:21;99563.22;;;21.22;60.06
35704;BME280;21820;51.112;13.762;2022-12-04T08:11:46;99564.06;;;21.23;60.52
35704;BME280;21820;51.112;13.762;2022-12-04T08:14:11;99557.47;;;21.19;60.63
35704;BME280;21820;51.112;13.762;2022-12-04T08:16:37;99556.34;;;21.21;60.32
35704;BME280;21820;51.112;13.762;2022-12-04T08:19:03;99554.72;;;21.20;60.15
35704;BME280;21820;51.112;13.762;2022-12-04T08:21:30;99548.50;;;21.21;60.48
35704;BME280;21820;51.112;13.762;2022-12-04T08:23:56;99568.59;;;21.21;60.66
35704;BME280;21820;51.112;13.762;2022-12-04T08:26:24;99559.53;;;21.25;60.65
35704;BME280;21820;51.112;13.762;2022-12-04T08:28:53;99551.53;;;21.26;60.60
35704;BME280;21820;51.112;13.762;2022-12-04T08:31:22;99556.75;;;21.26;60.24
35704;BME280;21820;51.112;13.762;2022-12-04T08:33:48;99558.41;;;21.27;59.85
35704;BME280;21820;51.112;13.762;2022-12-04T08:36:16;99559.94;;;21.30;60.11
35704;BME280;21820;51.112;13.762;2022-12-04T08:38:43;99554.56;;;21.31;60.20
35704;BME280;21820;51.112;13.762;2022-12-04T08:41:12;99563.91;;;21.34;60.14
35704;BME280;21820;51.112;13.762;2022-12-04T08:43:38;99567.22;;;21.36;60.18
35704;BME280;21820;51.112;13.762;2022-12-04T08:46:06;99561.84;;;21.37;59.82
35704;BME280;21820;51.112;13.762;2022-12-04T08:48:32;99561.03;;;21.37;59.55
35704;BME280;21820;51.112;13.762;2022-12-04T08:50:58;99559.22;;;21.37;59.42
35704;BME280;21820;51.112;13.762;2022-12-04T08:53:23;99561.56;;;21.40;59.76
35704;BME280;21820;51.112;13.762;2022-12-04T08:55:49;99566.13;;;21.38;59.72
35704;BME280;21820;51.112;13.762;2022-12-04T08:58:15;99563.91;;;21.34;59.91
35704;BME280;21820;51.112;13.762;2022-12-04T09:00:41;99571.63;;;21.35;60.38
35704;BME280;21820;51.112;13.762;2022-12-04T09:03:10;99554.16;;;21.26;60.07
35704;BME280;21820;51.112;13.762;2022-12-04T09:05:37;99553.19;;;21.37;60.14
35704;BME280;21820;51.112;13.762;2022-12-04T09:08:02;99558.41;;;21.37;59.78
35704;BME280;21820;51.112;13.762;2022-12-04T09:10:27;99557.03;;;21.33;59.90
35704;BME280;21820;51.112;13.762;2022-12-04T09:12:53;99551.38;;;21.37;59.24
35704;BME280;21820;51.112;13.762;2022-12-04T09:15:18;99554.81;;;21.38;59.06
35704;BME280;21820;51.112;13.762;2022-12-04T09:17:43;99552.22;;;21.38;59.08
35704;BME280;21820;51.112;13.762;2022-12-04T09:20:09;99546.84;;;21.39;59.26
35704;BME280;21820;51.112;13.762;2022-12-04T09:22:35;99543.38;;;21.39;59.22
35704;BME280;21820;51.112;13.762;2022-12-04T09:25:01;99548.63;;;21.39;59.26
35704;BME280;21820;51.112;13.762;2022-12-04T09:27:27;99546.97;;;21.38;59.09
35704;BME280;21820;51.112;13.762;2022-12-04T09:29:53;99541.59;;;21.39;58.87
35704;BME280;21820;51.112;13.762;2022-12-04T09:32:18;99535.28;;;21.32;58.91
35704;BME280;21820;51.112;13.762;2022-12-04T09:34:46;99528.41;;;21.31;59.05
35704;BME280;21820;51.112;13.762;2022-12-04T09:37:11;99542.03;;;21.44;58.70
35704;BME280;21820;51.112;13.762;2022-12-04T09:39:37;99539.41;;;21.44;59.51
35704;BME280;21820;51.112;13.762;2022-12-04T09:44:41;99543.53;;;21.37;59.55
35704;BME280;21820;51.112;13.762;2022-12-04T09:47:20;99540.13;;;21.37;59.46
35704;BME280;21820;51.112;13.762;2022-12-04T09:49:50;99543.53;;;21.37;59.29
35704;BME280;21820;51.112;13.762;2022-12-04T09:54:52;99546.44;;;21.34;60.03
35704;BME280;21820;51.112;13.762;2022-12-04T09:57:27;99547.69;;;21.30;60.05
35704;BME280;21820;51.112;13.762;2022-12-04T09:59:53;99538.88;;;21.31;60.31
35704;BME280;21820;51.112;13.762;2022-12-04T10:02:37;99544.09;;;21.31;59.68
35704;BME280;21820;51.112;13.762;2022-12-04T10:05:04;99520.72;;;21.20;60.00
35704;BME280;21820;51.112;13.762;2022-12-04T10:10:41;99537.75;;;21.34;59.76
35704;BME280;21820;51.112;13.762;2022-12-04T10:16:03;99533.50;;;21.33;59.78
35704;BME280;21820;51.112;13.762;2022-12-04T10:19:02;99528.13;;;21.34;60.04
35704;BME280;21820;51.112;13.762;2022-12-04T10:26:49;99501.72;;;21.28;60.11
35704;BME280;21820;51.112;13.762;2022-12-04T10:29:33;99526.50;;;21.33;60.13
35704;BME280;21820;51.112;13.762;2022-12-04T10:32:21;99524.81;;;21.32;59.88
35704;BME280;21820;51.112;13.762;2022-12-04T10:34:50;99529.25;;;21.32;60.23
35704;BME280;21820;51.112;13.762;2022-12-04T10:37:16;99528.41;;;21.31;60.39
35704;BME280;21820;51.112;13.762;2022-12-04T10:39:48;99530.34;;;21.29;60.07
35704;BME280;21820;51.112;13.762;2022-12-04T10:44:43;99517.53;;;21.26;60.63
35704;BME280;21820;51.112;13.762;2022-12-04T10:47:10;99511.34;;;21.27;60.16
35704;BME280;21820;51.112;13.762;2022-12-04T10:49:38;99511.19;;;21.29;60.29
35704;BME280;21820;51.112;13.762;2022-12-04T10:52:05;99509.41;;;21.29;60.44
35704;BME280;21820;51.112;13.762;2022-12-04T10:54:45;99511.09;;;21.30;60.82
35704;BME280;21820;51.112;13.762;2022-12-04T10:57:13;99512.03;;;21.29;60.49
35704;BME280;21820;51.112;13.762;2022-12-04T10:59:53;99511.88;;;21.31;60.55
35704;BME280;21820;51.112;13.762;2022-12-04T11:02:21;99504.59;;;21.34;60.06
35704;BME280;21820;51.112;13.762;2022-12-04T11:04:59;99500.06;;;21.36;58.78
35704;BME280;21820;51.112;13.762;2022-12-04T11:07:35;99508.88;;;21.35;57.69
35704;BME280;21820;51.112;13.762;2022-12-04T11:10:06;99508.19;;;21.33;57.41
35704;BME280;21820;51.112;13.762;2022-12-04T11:12:32;99502.25;;;21.31;56.90
35704;BME280;21820;51.112;13.762;2022-12-04T11:17:27;99502.28;;;21.22;57.00
35704;BME280;21820;51.112;13.762;2022-12-04T11:20:01;99509.84;;;21.25;58.08
35704;BME280;21820;51.112;13.762;2022-12-04T11:22:28;99515.63;;;21.28;58.26
35704;BME280;21820;51.112;13.762;2022-12-04T11:24:57;99513.28;;;21.25;58.46
35704;BME280;21820;51.112;13.762;2022-12-04T11:27:29;99514.22;;;21.34;58.13
35704;BME280;21820;51.112;13.762;2022-12-04T11:29:57;99514.88;;;21.45;56.57
35704;BME280;21820;51.112;13.762;2022-12-04T11:32:28;99501.97;;;21.34;56.82
35704;BME280;21820;51.112;13.762;2022-12-04T11:34:58;99488.22;;;21.23;56.62
35704;BME280;21820;51.112;13.762;2022-12-04T11:37:28;99501.97;;;21.34;55.81
35704;BME280;21820;51.112;13.762;2022-12-04T11:39:55;99507.22;;;21.34;56.16
35704;BME280;21820;51.112;13.762;2022-12-04T11:42:28;99502.25;;;21.31;56.46
35704;BME280;21820;51.112;13.762;2022-12-04T11:44:57;99501.69;;;21.37;56.03
35704;BME280;21820;51.112;13.762;2022-12-04T11:47:27;99496.88;;;21.42;56.23
35704;BME280;21820;51.112;13.762;2022-12-04T11:50:13;99502.63;;;21.46;55.74
35704;BME280;21820;51.112;13.762;2022-12-04T11:55:30;99481.59;;;21.38;55.48
35704;BME280;21820;51.112;13.762;2022-12-04T12:06:33;99492.53;;;21.60;55.85
35704;BME280;21820;51.112;13.762;2022-12-04T12:11:33;99487.59;;;21.57;56.00
35704;BME280;21820;51.112;13.762;2022-12-04T12:30:07;99469.38;;;21.84;56.28
35704;BME280;21820;51.112;13.762;2022-12-04T12:36:05;99452.50;;;21.96;55.92
35704;BME280;21820;51.112;13.762;2022-12-04T12:38:36;99462.41;;;22.03;56.28
35704;BME280;21820;51.112;13.762;2022-12-04T12:41:12;99463.25;;;22.03;56.37
35704;BME280;21820;51.112;13.762;2022-12-04T12:43:38;99458.25;;;22.10;55.96
35704;BME280;21820;51.112;13.762;2022-12-04T12:46:11;99459.88;;;22.11;56.30
35704;BME280;21820;51.112;13.762;2022-12-04T12:48:52;99461.38;;;22.13;56.29
35704;BME280;21820;51.112;13.762;2022-12-04T12:54:25;99433.50;;;21.94;56.87
35704;BME280;21820;51.112;13.762;2022-12-04T12:56:59;99450.66;;;22.07;56.77
35704;BME280;21820;51.112;13.762;2022-12-04T12:59:27;99446.31;;;21.98;56.65
35704;BME280;21820;51.112;13.762;2022-12-04T13:02:11;99444.94;;;21.93;56.62
35704;BME280;21820;51.112;13.762;2022-12-04T13:04:48;99427.78;;;21.72;55.65
35704;BME280;21820;51.112;13.762;2022-12-04T13:09:45;99447.63;;;21.74;55.63
35704;BME280;21820;51.112;13.762;2022-12-04T13:12:14;99440.06;;;21.71;56.75
35704;BME280;21820;51.112;13.762;2022-12-04T13:14:40;99430.69;;;21.69;56.08
35704;BME280;21820;51.112;13.762;2022-12-04T13:17:30;99444.91;;;21.66;56.51
35704;BME280;21820;51.112;13.762;2022-12-04T13:19:58;99403.50;;;21.52;57.03
35704;BME280;21820;51.112;13.762;2022-12-04T13:22:33;99419.03;;;21.63;56.84
35704;BME280;21820;51.112;13.762;2022-12-04T13:27:45;99423.72;;;21.60;57.03
35704;BME280;21820;51.112;13.762;2022-12-04T13:31:15;99428.81;;;21.61;56.81
35704;BME280;21820;51.112;13.762;2022-12-04T13:36:07;99430.94;;;21.48;56.40
35704;BME280;21820;51.112;13.762;2022-12-04T13:41:15;99424.31;;;21.44;57.18
35704;BME280;21820;51.112;13.762;2022-12-04T13:46:33;99414.72;;;21.35;57.83
35704;BME280;21820;51.112;13.762;2022-12-04T13:49:30;99423.53;;;21.34;57.88
35704;BME280;21820;51.112;13.762;2022-12-04T13:51:57;99419.41;;;21.32;57.70
35704;BME280;21820;51.112;13.762;2022-12-04T13:54:26;99422.19;;;21.30;57.84
35704;BME280;21820;51.112;13.762;2022-12-04T13:56:54;99426.56;;;21.30;58.53
35704;BME280;21820;51.112;13.762;2022-12-04T14:01:54;99427.66;;;21.27;58.46
35704;BME280;21820;51.112;13.762;2022-12-04T14:06:52;99440.47;;;21.30;58.60
35704;BME280;21820;51.112;13.762;2022-12-04T14:09:32;99441.13;;;21.32;58.68
35704;BME280;21820;51.112;13.762;2022-12-04T14:12:04;99443.09;;;21.30;58.94
35704;BME280;21820;51.112;13.762;2022-12-04T14:17:03;99437.56;;;21.33;58.73
35704;BME280;21820;51.112;13.762;2022-12-04T14:19:39;99449.09;;;21.40;58.37
35704;BME280;21820;51.112;13.762;2022-12-04T14:25:34;99446.22;;;21.43;57.78
35704;BME280;21820;51.112;13.762;2022-12-04T14:28:35;99445.25;;;21.44;57.88
35704;BME280;21820;51.112;13.762;2022-12-04T14:33:52;99433.69;;;21.37;57.98
35704;BME280;21820;51.112;13.762;2022-12-04T14:36:29;99436.72;;;21.42;58.23
35704;BME280;21820;51.112;13.762;2022-12-04T14:39:12;99430.13;;;21.38;58.79
35704;BME280;21820;51.112;13.762;2022-12-04T14:41:40;99432.75;;;21.38;58.85
35704;BME280;21820;51.112;13.762;2022-12-04T14:44:05;99439.06;;;21.36;58.92
35704;BME280;21820;51.112;13.762;2022-12-04T14:46:44;99430.13;;;21.38;59.05
35704;BME280;21820;51.112;13.762;2022-12-04T14:49:36;99428.75;;;21.34;59.21
35704;BME280;21820;51.112;13.762;2022-12-04T14:52:12;99428.47;;;21.37;58.72
35704;BME280;21820;51.112;13.762;2022-12-04T14:58:02;99433.41;;;21.40;58.43
35704;BME280;21820;51.112;13.762;2022-12-04T15:00:52;99419.09;;;21.44;58.68
35704;BME280;21820;51.112;13.762;2022-12-04T15:03:18;99423.63;;;21.42;58.47